Time;durP1;ratioP1;P1;durP2;ratioP2;P2;SDS_P1;SDS_P2;PMS_P1;PMS_P2;Temp;Humidity;BMP_temperature;BMP_pressure;BME280_temperature;BME280_humidity;BME280_pressure;Samples;Min_cycle;Max_cycle;Signal;HPM_P1;HPM_P2
2023/07/30 00:00:23;;;;;;;1.30;1.20;;;;;;;18.93;79.35;100041.44;5094655;28;20575;-82
2023/07/30 00:02:50;;;;;;;1.40;1.20;;;;;;;18.93;79.07;100041.44;5093871;28;20231;-82
2023/07/30 00:05:17;;;;;;;1.30;1.20;;;;;;;18.89;79.14;100031.97;5094345;28;20231;-82
2023/07/30 00:07:44;;;;;;;1.20;1.10;;;;;;;18.87;79.43;100034.00;5093889;28;20260;-83
2023/07/30 00:10:11;;;;;;;1.73;1.50;;;;;;;18.85;79.65;100033.31;5094137;28;20211;-83
2023/07/30 00:12:37;;;;;;;1.20;1.10;;;;;;;18.84;79.97;100033.47;5093523;28;20215;-83
2023/07/30 00:15:05;;;;;;;3.07;1.30;;;;;;;18.81;80.02;100044.63;5093646;28;20234;-81
2023/07/30 00:17:31;;;;;;;1.40;1.10;;;;;;;18.80;79.93;100053.72;5093403;28;20214;-82
2023/07/30 00:19:57;;;;;;;1.57;1.47;;;;;;;18.79;80.15;100046.63;5094412;28;20207;-82
2023/07/30 00:22:24;;;;;;;2.10;1.20;;;;;;;18.77;80.20;100049.50;5093500;28;20209;-82
2023/07/30 00:24:52;;;;;;;2.00;1.40;;;;;;;18.76;80.23;100052.34;5093639;28;20203;-81
2023/07/30 00:27:18;;;;;;;1.20;1.13;;;;;;;18.76;80.57;100044.25;5093557;28;20222;-81
2023/07/30 00:29:45;;;;;;;1.53;1.30;;;;;;;18.73;80.58;100048.13;5092633;28;20203;-83
2023/07/30 00:32:11;;;;;;;2.23;1.30;;;;;;;18.72;80.51;100041.03;5093161;28;20206;-83
2023/07/30 00:34:38;;;;;;;1.73;1.30;;;;;;;18.70;80.89;100046.59;5092923;28;20232;-82
2023/07/30 00:37:05;;;;;;;1.93;1.30;;;;;;;18.68;80.93;100036.97;5093120;28;20588;-83
2023/07/30 00:39:31;;;;;;;2.70;1.50;;;;;;;18.66;80.99;100047.94;5093926;28;20214;-82
2023/07/30 00:41:59;;;;;;;1.53;1.23;;;;;;;18.65;81.14;100046.25;5094230;28;20206;-82
2023/07/30 00:44:25;;;;;;;1.80;1.00;;;;;;;18.63;81.22;100048.25;5093964;28;20280;-82
2023/07/30 00:46:52;;;;;;;1.73;1.40;;;;;;;18.61;81.12;100049.44;5093550;28;20226;-82
2023/07/30 00:49:19;;;;;;;1.40;1.30;;;;;;;18.60;81.60;100050.47;5093823;28;20204;-81
2023/07/30 00:51:46;;;;;;;1.27;1.17;;;;;;;18.56;81.73;100055.28;5093356;28;20889;-82
2023/07/30 00:54:13;;;;;;;1.77;1.67;;;;;;;18.54;81.96;100057.31;5092936;28;20228;-83
2023/07/30 00:56:46;;;;;;;2.27;1.10;;;;;;;18.53;82.04;100062.84;5092873;28;20965;-83
2023/07/30 00:59:14;;;;;;;1.47;1.23;;;;;;;18.50;82.22;100064.03;5093357;28;20218;-82
2023/07/30 01:01:43;;;;;;;1.73;1.30;;;;;;;18.48;82.48;100060.63;5093980;28;20660;-81
2023/07/30 01:04:10;;;;;;;1.20;1.10;;;;;;;18.46;82.79;100070.75;5093482;28;20209;-81
2023/07/30 01:06:36;;;;;;;1.80;1.20;;;;;;;18.44;83.33;100078.16;5093533;28;20232;-82
2023/07/30 01:09:03;;;;;;;1.50;1.33;;;;;;;18.45;83.83;100079.03;5093689;28;20215;-82
2023/07/30 01:11:30;;;;;;;1.90;1.50;;;;;;;18.44;84.35;100074.63;5093391;28;20683;-81
2023/07/30 01:13:57;;;;;;;1.97;1.40;;;;;;;18.44;84.95;100083.56;5092487;28;20213;-82
2023/07/30 01:16:26;;;;;;;2.30;1.20;;;;;;;18.44;85.00;100074.63;5092469;28;20235;-83
2023/07/30 01:18:52;;;;;;;1.70;1.60;;;;;;;18.44;84.99;100077.31;5092283;28;20209;-81
2023/07/30 01:21:22;;;;;;;1.97;1.37;;;;;;;18.45;85.36;100082.53;5092397;28;20688;-82
2023/07/30 01:23:49;;;;;;;2.20;1.30;;;;;;;18.46;85.49;100083.38;5092258;28;20184;-82
2023/07/30 01:26:23;;;;;;;1.60;1.20;;;;;;;18.46;85.70;100089.63;5092234;28;20259;-81
2023/07/30 01:28:54;;;;;;;1.80;1.23;;;;;;;18.46;85.87;100089.63;5092615;28;20682;-82
2023/07/30 01:31:24;;;;;;;2.43;1.30;;;;;;;18.47;85.69;100094.00;5092573;28;20187;-82
2023/07/30 01:33:55;;;;;;;1.53;1.40;;;;;;;18.47;85.90;100096.69;5091931;28;20227;-82
2023/07/30 01:36:23;;;;;;;1.47;1.30;;;;;;;18.46;85.93;100100.41;5091731;28;20227;-82
2023/07/30 01:38:51;;;;;;;2.50;1.70;;;;;;;18.46;86.00;100108.50;5092743;28;20214;-82
2023/07/30 01:41:17;;;;;;;2.70;1.67;;;;;;;18.46;86.18;100095.00;5091987;28;20210;-81
2023/07/30 01:43:44;;;;;;;1.90;1.33;;;;;;;18.45;86.29;100100.59;5092597;28;20202;-83
2023/07/30 01:46:10;;;;;;;3.77;1.60;;;;;;;18.43;86.33;100089.13;5092227;28;20227;-83
2023/07/30 01:48:36;;;;;;;1.60;1.50;;;;;;;18.43;86.13;100106.13;5091840;28;20212;-82
2023/07/30 01:51:03;;;;;;;3.20;1.70;;;;;;;18.41;86.04;100099.22;5091909;28;20211;-82
2023/07/30 01:53:31;;;;;;;3.43;1.70;;;;;;;18.39;85.80;100102.06;5091969;28;20211;-81
2023/07/30 01:55:57;;;;;;;2.50;1.50;;;;;;;18.37;85.61;100099.53;5091842;28;20719;-82
2023/07/30 01:58:24;;;;;;;1.47;1.37;;;;;;;18.38;85.56;100103.06;5092165;28;20586;-81
2023/07/30 02:00:50;;;;;;;2.73;1.50;;;;;;;18.38;85.43;100109.31;5092144;28;20202;-81
2023/07/30 02:03:16;;;;;;;2.70;1.80;;;;;;;18.36;85.30;100119.41;5092240;28;20230;-81
2023/07/30 02:05:43;;;;;;;2.17;1.43;;;;;;;18.35;85.27;100114.16;5092524;28;20221;-81
2023/07/30 02:08:09;;;;;;;1.90;1.70;;;;;;;18.34;85.40;100117.88;5096013;28;20587;-81
2023/07/30 02:10:37;;;;;;;1.90;1.73;;;;;;;18.30;85.33;100117.34;5095967;28;20207;-82
2023/07/30 02:13:04;;;;;;;1.97;1.50;;;;;;;18.26;85.58;100123.22;5096051;28;20222;-82
2023/07/30 02:15:30;;;;;;;2.30;1.60;;;;;;;18.22;85.52;100122.69;5096077;28;20234;-83
2023/07/30 02:17:56;;;;;;;2.13;1.80;;;;;;;18.19;85.58;100119.47;5095781;28;20211;-81
2023/07/30 02:20:23;;;;;;;2.83;1.67;;;;;;;18.16;85.50;100122.47;5095993;28;20219;-82
2023/07/30 02:22:49;;;;;;;4.27;2.27;;;;;;;18.13;85.47;100120.09;5096060;28;20206;-83
2023/07/30 02:25:16;;;;;;;3.40;2.13;;;;;;;18.09;85.60;100124.97;5094993;28;20224;-83
2023/07/30 02:27:44;;;;;;;2.60;1.77;;;;;;;18.04;85.79;100106.56;5095697;28;20214;-82
2023/07/30 02:30:11;;;;;;;3.87;1.77;;;;;;;18.02;85.58;100122.06;5095414;28;20825;-82
2023/07/30 02:32:37;;;;;;;3.07;2.00;;;;;;;17.97;85.85;100118.97;5095883;28;20206;-81
2023/07/30 02:35:04;;;;;;;2.87;2.00;;;;;;;17.93;85.81;100116.75;5095437;28;20233;-81
2023/07/30 02:37:31;;;;;;;3.13;1.90;;;;;;;17.89;85.84;100129.72;5096140;28;20205;-82
2023/07/30 02:39:57;;;;;;;4.73;1.90;;;;;;;17.85;86.01;100120.25;5095558;28;20207;-82
2023/07/30 02:42:23;;;;;;;2.90;2.10;;;;;;;17.84;85.99;100126.63;5094781;28;20716;-81
2023/07/30 02:44:51;;;;;;;3.37;2.13;;;;;;;17.81;86.03;100120.69;5094597;28;20207;-81
2023/07/30 02:47:18;;;;;;;2.93;1.63;;;;;;;17.79;86.12;100128.09;5095285;28;20230;-82
2023/07/30 02:49:44;;;;;;;3.53;2.00;;;;;;;17.75;86.09;100124.84;5094894;28;20225;-81
2023/07/30 02:52:11;;;;;;;4.53;1.97;;;;;;;17.72;86.24;100117.13;5094394;28;20302;-81
2023/07/30 02:54:37;;;;;;;4.90;1.90;;;;;;;17.68;86.20;100119.28;5095119;28;20230;-81
2023/07/30 02:57:04;;;;;;;3.93;2.00;;;;;;;17.64;85.95;100128.66;5094753;28;20265;-81
2023/07/30 02:59:30;;;;;;;2.90;1.63;;;;;;;17.63;86.20;100124.22;5095200;28;20229;-81
2023/07/30 03:01:58;;;;;;;3.27;2.20;;;;;;;17.57;86.29;100132.06;5095163;28;20615;-82
2023/07/30 03:04:25;;;;;;;3.03;2.00;;;;;;;17.55;86.07;100134.09;5095095;28;20201;-83
2023/07/30 03:06:51;;;;;;;5.07;2.33;;;;;;;17.53;86.09;100134.25;5094566;28;20582;-83
2023/07/30 03:09:18;;;;;;;3.93;2.13;;;;;;;17.51;86.02;100130.88;5094170;28;20227;-82
2023/07/30 03:11:44;;;;;;;3.53;2.03;;;;;;;17.50;85.96;100141.78;5094066;28;20213;-82
2023/07/30 03:14:11;;;;;;;4.03;2.00;;;;;;;17.45;86.21;100142.25;5094326;28;20208;-82
2023/07/30 03:16:37;;;;;;;4.13;2.23;;;;;;;17.44;86.01;100135.16;5095064;28;20229;-82
2023/07/30 03:19:05;;;;;;;5.70;2.10;;;;;;;17.42;86.09;100141.69;5093572;28;20206;-82
2023/07/30 03:21:32;;;;;;;4.87;2.00;;;;;;;17.39;86.07;100142.00;5094840;28;20208;-82
2023/07/30 03:23:58;;;;;;;2.63;1.83;;;;;;;17.36;86.04;100143.16;5094777;28;20653;-81
2023/07/30 03:26:25;;;;;;;3.87;1.90;;;;;;;17.37;86.15;100146.72;5094747;28;20839;-81
2023/07/30 03:28:51;;;;;;;2.83;2.10;;;;;;;17.34;86.17;100145.16;5094596;28;20233;-81
2023/07/30 03:31:18;;;;;;;3.57;2.20;;;;;;;17.31;86.14;100146.31;5094962;28;20212;-82
2023/07/30 03:33:45;;;;;;;5.77;2.33;;;;;;;17.30;86.06;100150.00;5095191;28;20209;-82
2023/07/30 03:36:14;;;;;;;3.83;1.97;;;;;;;17.28;86.23;100149.31;5094370;28;20299;-81
2023/07/30 03:38:41;;;;;;;2.67;1.93;;;;;;;17.25;86.50;100154.97;5095030;28;20212;-81
2023/07/30 03:41:07;;;;;;;3.93;2.40;;;;;;;17.24;86.58;100152.44;5094767;28;20740;-82
2023/07/30 03:43:34;;;;;;;3.70;2.03;;;;;;;17.22;86.54;100155.28;5093987;28;20209;-82
2023/07/30 03:46:01;;;;;;;4.73;2.10;;;;;;;17.22;86.46;100163.34;5093729;28;20228;-83
2023/07/30 03:48:27;;;;;;;3.83;2.07;;;;;;;17.21;86.66;100163.50;5093989;28;20212;-83
2023/07/30 03:50:54;;;;;;;3.77;2.03;;;;;;;17.18;86.59;100166.53;5093884;28;20205;-82
2023/07/30 03:53:22;;;;;;;3.07;2.00;;;;;;;17.18;86.71;100161.16;5093854;28;20212;-81
2023/07/30 03:55:49;;;;;;;5.83;2.03;;;;;;;17.16;86.76;100163.97;5093869;28;20570;-82
2023/07/30 03:58:15;;;;;;;4.43;2.00;;;;;;;17.13;86.85;100164.28;5093662;28;20205;-81
2023/07/30 04:00:42;;;;;;;3.77;2.23;;;;;;;17.13;86.91;100164.28;5094110;28;20201;-81
2023/07/30 04:03:08;;;;;;;5.70;2.23;;;;;;;17.11;86.78;100166.28;5093349;28;20215;-82
2023/07/30 04:05:35;;;;;;;5.77;2.30;;;;;;;17.08;86.77;100169.25;5093705;28;20739;-82
2023/07/30 04:08:01;;;;;;;6.57;2.33;;;;;;;17.07;87.09;100167.56;5093552;28;20197;-81
2023/07/30 04:10:29;;;;;;;3.70;2.47;;;;;;;17.06;86.93;100163.19;5093986;28;20549;-82
2023/07/30 04:12:56;;;;;;;5.53;2.53;;;;;;;17.06;86.86;100167.72;5093473;28;20250;-81
2023/07/30 04:15:22;;;;;;;4.80;2.30;;;;;;;17.03;86.96;100174.22;5092972;28;20232;-81
2023/07/30 04:17:48;;;;;;;5.57;2.20;;;;;;;17.03;86.98;100182.31;5093428;28;20204;-81
2023/07/30 04:20:15;;;;;;;3.77;2.07;;;;;;;17.02;87.11;100178.75;5093487;28;20205;-82
2023/07/30 04:22:41;;;;;;;4.13;2.50;;;;;;;17.02;87.09;100180.59;5093454;28;20220;-82
2023/07/30 04:25:10;;;;;;;4.33;2.43;;;;;;;17.02;87.04;100177.91;5093465;28;20251;-83
2023/07/30 04:27:38;;;;;;;3.80;2.23;;;;;;;17.01;87.11;100176.25;5092787;28;20719;-82
2023/07/30 04:30:06;;;;;;;3.93;2.57;;;;;;;17.01;87.09;100189.72;5093068;28;20202;-81
2023/07/30 04:32:32;;;;;;;4.93;2.27;;;;;;;17.01;87.27;100178.94;5093237;28;20209;-82
2023/07/30 04:34:59;;;;;;;5.50;2.50;;;;;;;17.02;87.25;100183.28;5093186;28;20250;-82
2023/07/30 04:37:25;;;;;;;5.10;2.40;;;;;;;17.02;87.06;100177.91;5093026;28;20215;-82
2023/07/30 04:39:52;;;;;;;5.07;2.53;;;;;;;17.04;87.27;100180.47;5093776;28;20212;-83
2023/07/30 04:42:18;;;;;;;5.40;2.10;;;;;;;17.06;87.11;100181.16;5093798;28;20222;-82
2023/07/30 04:44:46;;;;;;;3.17;2.57;;;;;;;17.07;87.31;100182.84;5093024;28;20198;-82
2023/07/30 04:47:12;;;;;;;4.47;2.40;;;;;;;17.09;87.19;100184.41;5092858;28;20228;-82
2023/07/30 04:49:40;;;;;;;4.27;2.47;;;;;;;17.10;87.23;100177.19;5093243;28;20812;-82
2023/07/30 04:52:07;;;;;;;5.50;2.60;;;;;;;17.10;87.33;100182.56;5093164;28;20739;-82
2023/07/30 04:54:35;;;;;;;3.90;3.03;;;;;;;17.10;87.85;100183.41;5092921;28;20240;-82
2023/07/30 04:57:03;;;;;;;5.13;3.87;;;;;;;17.12;88.14;100184.13;5092830;28;20229;-81
2023/07/30 04:59:29;;;;;;;6.27;4.10;;;;;;;17.16;88.33;100190.91;5093556;28;20212;-81
2023/07/30 05:01:57;;;;;;;7.27;5.20;;;;;;;17.18;88.86;100188.91;5092665;28;20217;-82
2023/07/30 05:04:23;;;;;;;8.83;4.63;;;;;;;17.21;89.04;100187.72;5093063;28;20205;-83
2023/07/30 05:06:50;;;;;;;8.03;4.80;;;;;;;17.23;89.35;100183.88;5092764;28;20225;-83
2023/07/30 05:09:16;;;;;;;7.47;5.30;;;;;;;17.27;89.64;100185.28;5092215;28;20619;-82
2023/07/30 05:11:43;;;;;;;6.03;5.07;;;;;;;17.29;89.90;100177.06;5092490;28;20375;-82
2023/07/30 05:14:09;;;;;;;6.53;4.93;;;;;;;17.33;90.00;100175.78;5092711;28;20208;-81
2023/07/30 05:16:36;;;;;;;8.13;5.13;;;;;;;17.36;90.20;100178.16;5092132;28;20245;-82
2023/07/30 05:19:04;;;;;;;9.90;6.27;;;;;;;17.39;90.41;100174.28;5092528;28;20296;-81
2023/07/30 05:21:30;;;;;;;7.77;6.00;;;;;;;17.42;90.33;100174.00;5093217;28;20238;-82
2023/07/30 05:23:57;;;;;;;10.50;6.80;;;;;;;17.44;90.34;100177.38;5092596;28;20197;-82
2023/07/30 05:26:23;;;;;;;9.47;6.37;;;;;;;17.47;90.41;100177.09;5092166;28;20228;-81
2023/07/30 05:28:50;;;;;;;10.97;6.83;;;;;;;17.49;90.56;100177.78;5092408;28;20684;-82
2023/07/30 05:31:16;;;;;;;9.73;6.23;;;;;;;17.51;90.34;100179.31;5092751;28;20555;-81
2023/07/30 05:33:43;;;;;;;9.23;5.57;;;;;;;17.53;90.15;100176.47;5092799;28;20210;-82
2023/07/30 05:36:11;;;;;;;10.97;6.57;;;;;;;17.56;89.47;100181.53;5092415;28;20229;-82
2023/07/30 05:38:37;;;;;;;11.70;6.47;;;;;;;17.57;89.36;100181.38;5092592;28;20206;-81
2023/07/30 05:41:04;;;;;;;8.87;6.37;;;;;;;17.59;89.32;100189.31;5093971;28;20205;-81
2023/07/30 05:43:30;;;;;;;8.07;5.97;;;;;;;17.63;88.99;100182.63;5096870;28;20220;-81
2023/07/30 05:45:56;;;;;;;6.87;5.30;;;;;;;17.69;88.79;100182.91;5097300;28;20226;-81
2023/07/30 05:48:23;;;;;;;9.23;5.67;;;;;;;17.76;88.42;100171.50;5096577;28;20292;-83
2023/07/30 05:50:50;;;;;;;8.23;4.93;;;;;;;17.81;87.66;100175.44;5096603;28;20214;-83
2023/07/30 05:53:17;;;;;;;7.77;5.03;;;;;;;17.88;87.13;100172.97;5096336;28;20206;-83
2023/07/30 05:55:44;;;;;;;7.07;4.90;;;;;;;17.95;85.84;100177.56;5095996;28;20224;-81
2023/07/30 05:58:10;;;;;;;8.47;5.33;;;;;;;18.03;85.66;100179.50;5095628;28;20217;-81
2023/07/30 06:00:37;;;;;;;6.67;4.77;;;;;;;18.14;84.54;100181.06;5095573;28;20206;-82
2023/07/30 06:03:05;;;;;;;7.50;4.10;;;;;;;18.22;83.67;100179.28;5095949;28;20682;-81
2023/07/30 06:05:32;;;;;;;6.13;4.07;;;;;;;18.32;82.82;100177.34;5095390;28;20224;-83
2023/07/30 06:07:59;;;;;;;5.87;3.70;;;;;;;18.39;81.86;100178.41;5095156;28;20421;-82
2023/07/30 06:10:27;;;;;;;4.40;3.60;;;;;;;18.47;81.09;100185.69;5094975;28;20208;-82
2023/07/30 06:12:53;;;;;;;6.07;4.07;;;;;;;18.57;80.77;100183.75;5095127;28;20222;-82
2023/07/30 06:15:20;;;;;;;4.83;3.43;;;;;;;18.68;79.01;100180.78;5095571;28;20232;-82
2023/07/30 06:17:46;;;;;;;7.27;3.80;;;;;;;18.72;78.49;100175.94;5095483;28;20202;-82
2023/07/30 06:20:13;;;;;;;5.57;3.27;;;;;;;18.83;77.96;100174.78;5095234;28;20207;-82
2023/07/30 06:22:39;;;;;;;6.80;2.93;;;;;;;18.93;76.92;100173.66;5095473;28;20583;-82
2023/07/30 06:25:06;;;;;;;4.87;3.23;;;;;;;19.05;75.32;100174.22;5094968;28;20203;-82
2023/07/30 06:27:34;;;;;;;6.03;2.73;;;;;;;19.08;74.51;100172.03;5094809;28;20209;-81
2023/07/30 06:30:00;;;;;;;4.33;3.20;;;;;;;19.16;73.72;100173.94;5095216;28;20223;-81
2023/07/30 06:32:27;;;;;;;5.93;3.00;;;;;;;19.23;73.50;100169.53;5094821;28;20207;-82
2023/07/30 06:34:54;;;;;;;5.77;2.60;;;;;;;19.31;72.27;100177.69;5094990;28;20393;-82
2023/07/30 06:37:20;;;;;;;5.77;2.93;;;;;;;19.36;71.01;100167.22;5094911;28;20606;-82
2023/07/30 06:39:46;;;;;;;5.17;2.60;;;;;;;19.42;69.71;100176.50;5094707;28;20228;-82
2023/07/30 06:42:13;;;;;;;4.50;2.37;;;;;;;19.50;69.35;100170.31;5094601;28;20215;-83
2023/07/30 06:44:41;;;;;;;3.93;2.13;;;;;;;19.58;69.48;100176.56;5094376;28;20209;-82
2023/07/30 06:47:08;;;;;;;3.83;2.13;;;;;;;19.71;68.99;100176.06;5094015;28;20221;-82
2023/07/30 06:49:35;;;;;;;3.90;1.90;;;;;;;19.82;67.42;100175.75;5094272;28;20210;-82
2023/07/30 06:52:01;;;;;;;5.47;2.30;;;;;;;19.86;66.15;100173.56;5094785;28;20675;-82
2023/07/30 06:54:29;;;;;;;3.33;1.60;;;;;;;19.94;64.61;100185.22;5094681;28;20206;-82
2023/07/30 06:56:55;;;;;;;4.40;1.60;;;;;;;19.97;64.02;100179.47;5094480;28;20235;-81
2023/07/30 06:59:22;;;;;;;2.73;1.40;;;;;;;20.01;63.48;100183.53;5094513;28;20215;-81
2023/07/30 07:01:50;;;;;;;5.97;1.90;;;;;;;20.08;63.65;100189.09;5094696;28;20774;-82
2023/07/30 07:04:16;;;;;;;2.33;1.30;;;;;;;20.19;63.04;100196.03;5094292;28;20663;-81
2023/07/30 07:06:43;;;;;;;4.53;1.67;;;;;;;20.28;62.29;100200.41;5094279;28;20238;-82
2023/07/30 07:09:09;;;;;;;2.40;1.60;;;;;;;20.39;62.60;100200.13;5094236;28;20218;-82
2023/07/30 07:11:36;;;;;;;2.60;1.42;;;;;;;20.47;61.61;100200.09;5094058;28;20678;-83
2023/07/30 07:14:02;;;;;;;3.57;1.60;;;;;;;20.54;60.99;100201.09;5094605;28;20689;-82
2023/07/30 07:16:29;;;;;;;2.93;2.00;;;;;;;20.63;61.06;100215.44;5094048;28;20289;-82
2023/07/30 07:18:57;;;;;;;4.07;1.40;;;;;;;20.71;60.30;100218.97;5094485;28;20457;-83
2023/07/30 07:21:23;;;;;;;3.13;1.65;;;;;;;20.80;59.96;100209.81;5094136;28;20687;-82
2023/07/30 07:23:50;;;;;;;2.90;1.90;;;;;;;20.87;59.44;100206.41;5094140;28;20211;-82
2023/07/30 07:26:16;;;;;;;2.45;1.65;;;;;;;20.94;59.71;100202.00;5093659;28;20234;-83
2023/07/30 07:28:43;;;;;;;3.65;2.38;;;;;;;20.98;58.25;100203.31;5093759;28;20643;-82
2023/07/30 07:31:09;;;;;;;3.72;2.00;;;;;;;21.04;58.52;100208.03;5094252;28;20212;-82
2023/07/30 07:33:37;;;;;;;3.53;1.60;;;;;;;21.08;57.29;100207.53;5094552;28;20207;-82
2023/07/30 07:36:06;;;;;;;3.03;1.63;;;;;;;21.07;57.16;100208.53;5094713;28;20262;-83
2023/07/30 07:38:32;;;;;;;3.65;1.77;;;;;;;21.18;56.83;100201.03;5095000;28;20242;-82
2023/07/30 07:40:59;;;;;;;3.55;1.63;;;;;;;21.21;56.60;100214.28;5094845;28;20255;-82
2023/07/30 07:43:26;;;;;;;2.10;1.48;;;;;;;21.33;57.22;100212.84;5094149;28;20223;-82
2023/07/30 07:45:52;;;;;;;3.95;1.88;;;;;;;21.40;56.40;100211.97;5093490;28;20220;-82
2023/07/30 07:48:19;;;;;;;3.60;1.67;;;;;;;21.56;55.86;100205.63;5093509;28;20207;-82
2023/07/30 07:50:46;;;;;;;2.58;1.40;;;;;;;21.65;54.78;100214.56;5093289;28;20215;-82
2023/07/30 07:53:14;;;;;;;4.18;2.10;;;;;;;21.67;54.97;100224.19;5092977;28;20204;-82
2023/07/30 07:55:40;;;;;;;2.97;1.50;;;;;;;21.71;54.61;100219.22;5092941;28;20232;-82
2023/07/30 07:58:06;;;;;;;3.08;1.48;;;;;;;21.78;54.57;100212.09;5092929;28;20227;-82
2023/07/30 08:00:33;;;;;;;3.17;1.48;;;;;;;21.84;54.10;100224.94;5093719;28;20204;-82
2023/07/30 08:02:59;;;;;;;3.22;1.50;;;;;;;21.95;53.32;100232.63;5095856;28;20212;-82
2023/07/30 08:05:26;;;;;;;2.42;1.40;;;;;;;22.02;53.20;100220.09;5093027;28;20775;-82
2023/07/30 08:07:52;;;;;;;5.25;2.10;;;;;;;22.09;53.07;100233.75;5092930;28;20587;-82
2023/07/30 08:10:20;;;;;;;4.60;1.77;;;;;;;22.16;53.53;100238.28;5092757;28;20672;-81
2023/07/30 08:12:48;;;;;;;3.28;1.70;;;;;;;22.24;52.58;100239.22;5093003;28;20591;-82
2023/07/30 08:15:15;;;;;;;4.20;1.40;;;;;;;22.28;51.97;100238.66;5092741;28;20203;-81
2023/07/30 08:17:41;;;;;;;4.20;1.60;;;;;;;22.35;51.90;100238.78;5092563;28;20715;-82
2023/07/30 08:20:08;;;;;;;3.65;1.48;;;;;;;22.41;52.10;100230.75;5093041;28;20684;-81
2023/07/30 08:22:35;;;;;;;3.95;1.70;;;;;;;22.42;51.00;100228.88;5092822;28;20692;-81
2023/07/30 08:25:02;;;;;;;2.65;1.63;;;;;;;22.45;51.11;100228.50;5092970;28;20211;-81
2023/07/30 08:27:30;;;;;;;3.47;1.50;;;;;;;22.52;49.98;100226.75;5093535;28;20625;-81
2023/07/30 08:29:56;;;;;;;2.72;1.65;;;;;;;22.59;50.51;100208.69;5092899;28;20196;-81
2023/07/30 08:32:23;;;;;;;2.85;1.23;;;;;;;22.56;49.79;100221.81;5092438;28;20208;-81
2023/07/30 08:34:49;;;;;;;3.55;1.30;;;;;;;22.56;49.70;100214.50;5092536;28;20290;-81
2023/07/30 08:37:16;;;;;;;2.95;1.30;;;;;;;22.60;50.28;100206.81;5092149;28;20239;-81
2023/07/30 08:39:42;;;;;;;2.97;1.60;;;;;;;22.72;50.84;100203.47;5092688;28;20771;-80
2023/07/30 08:42:09;;;;;;;4.10;1.33;;;;;;;22.88;49.54;100199.78;5092476;28;20687;-83
2023/07/30 08:44:37;;;;;;;2.83;1.42;;;;;;;22.97;49.36;100205.94;5092253;28;20565;-83
2023/07/30 08:47:03;;;;;;;3.00;1.50;;;;;;;23.07;49.21;100203.78;5092230;28;20227;-83
2023/07/30 08:49:32;;;;;;;2.65;1.30;;;;;;;23.17;48.89;100207.88;5092494;28;20211;-82
2023/07/30 08:52:00;;;;;;;3.28;1.48;;;;;;;23.23;47.84;100198.16;5092178;28;20215;-82
2023/07/30 08:54:29;;;;;;;1.88;1.33;;;;;;;23.26;47.99;100188.78;5091761;28;20211;-83
2023/07/30 08:56:56;;;;;;;4.68;1.38;;;;;;;23.27;48.07;100195.91;5092806;28;20342;-83
2023/07/30 08:59:24;;;;;;;4.55;1.67;;;;;;;23.33;48.24;100193.25;5091886;28;20208;-83
2023/07/30 09:01:53;;;;;;;4.82;1.30;;;;;;;23.43;47.47;100192.94;5092222;28;20217;-83
2023/07/30 09:04:20;;;;;;;4.03;1.25;;;;;;;23.49;48.24;100195.72;5092194;28;20226;-83
2023/07/30 09:06:48;;;;;;;3.10;1.38;;;;;;;23.54;47.51;100185.16;5092114;28;20584;-83
2023/07/30 09:09:14;;;;;;;3.75;1.70;;;;;;;23.57;47.64;100185.81;5091758;28;20204;-82
2023/07/30 09:11:41;;;;;;;2.97;1.75;;;;;;;23.56;48.08;100192.28;5091674;28;20311;-83
2023/07/30 09:14:07;;;;;;;4.25;1.70;;;;;;;23.59;48.14;100189.19;5091710;28;20208;-82
2023/07/30 09:16:34;;;;;;;5.15;1.60;;;;;;;23.60;47.71;100199.03;5090798;28;20240;-83
2023/07/30 09:19:02;;;;;;;2.97;1.55;;;;;;;23.58;47.86;100196.50;5090375;28;20221;-83
2023/07/30 09:21:32;;;;;;;4.38;1.58;;;;;;;23.61;47.71;100190.69;5090709;28;20200;-83
2023/07/30 09:24:03;;;;;;;2.65;1.52;;;;;;;23.59;47.89;100203.63;5083380;28;20271;-83
2023/07/30 09:26:30;;;;;;;3.63;1.55;;;;;;;23.54;47.95;100209.63;5091306;28;20220;-82
2023/07/30 09:28:56;;;;;;;3.72;1.77;;;;;;;23.51;47.85;100211.84;5090573;28;20206;-82
2023/07/30 09:31:23;;;;;;;3.83;1.42;;;;;;;23.46;48.13;100208.88;5076185;28;20208;-83
2023/07/30 09:33:49;;;;;;;3.70;1.52;;;;;;;23.45;48.37;100220.78;5092569;28;20204;-82
2023/07/30 09:36:20;;;;;;;4.57;1.50;;;;;;;23.47;48.55;100213.25;5094600;28;20232;-84
2023/07/30 09:38:46;;;;;;;5.75;1.30;;;;;;;23.46;47.85;100226.03;5079351;28;20205;-83
2023/07/30 09:41:14;;;;;;;2.00;1.30;;;;;;;23.42;48.50;100227.44;5072140;28;20251;-83
2023/07/30 09:43:41;;;;;;;2.97;1.50;;;;;;;23.31;48.68;100238.78;5074190;28;20212;-83
2023/07/30 09:46:07;;;;;;;4.22;1.45;;;;;;;23.29;49.06;100231.88;5099851;28;20725;-83
2023/07/30 09:48:35;;;;;;;2.85;1.50;;;;;;;23.31;49.00;100230.63;5114639;28;20199;-84
2023/07/30 09:51:03;;;;;;;3.97;1.45;;;;;;;23.32;48.89;100239.63;5115060;28;20203;-83
2023/07/30 09:53:34;;;;;;;2.97;1.38;;;;;;;23.30;49.27;100234.38;5114862;28;20203;-81
2023/07/30 09:56:01;;;;;;;4.22;1.73;;;;;;;23.31;49.70;100241.50;5114285;28;20718;-83
2023/07/30 09:58:27;;;;;;;4.03;1.80;;;;;;;23.29;49.35;100249.00;5100258;28;20726;-83
2023/07/30 10:00:55;;;;;;;5.25;2.40;;;;;;;23.23;49.55;100233.47;5094981;28;20810;-83
2023/07/30 10:03:21;;;;;;;4.20;1.55;;;;;;;23.18;49.68;100241.34;5094150;28;20212;-82
2023/07/30 10:05:48;;;;;;;3.00;1.80;;;;;;;23.13;49.87;100243.75;5090808;28;20223;-82
2023/07/30 10:08:21;;;;;;;3.92;1.63;;;;;;;23.07;50.28;100239.94;5078117;28;20203;-82
2023/07/30 10:10:50;;;;;;;3.22;1.60;;;;;;;23.02;49.93;100244.25;5071416;28;20279;-82
2023/07/30 10:13:17;;;;;;;4.93;1.63;;;;;;;22.98;50.42;100251.06;5071110;28;20624;-82
2023/07/30 10:15:44;;;;;;;3.38;1.42;;;;;;;22.92;50.73;100258.13;5071082;28;20229;-82
2023/07/30 10:18:11;;;;;;;4.03;1.73;;;;;;;22.87;51.11;100267.84;5070425;28;20274;-82
2023/07/30 10:20:38;;;;;;;4.07;1.88;;;;;;;22.78;51.29;100267.06;5070950;28;20786;-82
2023/07/30 10:23:06;;;;;;;2.65;1.63;;;;;;;22.71;51.47;100268.81;5090176;28;20212;-81
2023/07/30 10:25:44;;;;;;;5.85;2.22;;;;;;;22.63;51.29;100280.59;5090826;28;20228;-82
2023/07/30 10:28:27;;;;;;;3.63;1.50;;;;;;;22.57;51.68;100284.06;5093246;28;20187;-83
2023/07/30 10:30:56;;;;;;;3.58;2.42;;;;;;;22.51;51.71;100287.50;5094420;28;20197;-82
2023/07/30 10:33:23;;;;;;;3.15;2.10;;;;;;;22.44;52.15;100289.22;5094585;28;20221;-83
2023/07/30 10:35:56;;;;;;;6.22;2.40;;;;;;;22.41;52.02;100286.88;5098076;28;20223;-83
2023/07/30 10:38:28;;;;;;;4.45;2.20;;;;;;;22.35;52.28;100293.91;5098702;28;20215;-83
2023/07/30 10:41:02;;;;;;;4.00;2.75;;;;;;;22.25;51.94;100287.00;5097857;28;20188;-83
2023/07/30 10:43:31;;;;;;;5.20;2.53;;;;;;;22.21;51.99;100293.84;5098289;28;20226;-82
2023/07/30 10:45:57;;;;;;;6.18;3.03;;;;;;;22.15;52.26;100298.97;5097611;28;20224;-83
2023/07/30 10:48:31;;;;;;;5.80;2.72;;;;;;;22.08;52.55;100295.28;5089430;28;20208;-82
2023/07/30 10:50:58;;;;;;;6.72;2.58;;;;;;;22.05;52.71;100298.34;5073944;28;20189;-81
2023/07/30 10:53:24;;;;;;;5.97;2.47;;;;;;;22.06;53.53;100301.91;5073645;28;20204;-82
2023/07/30 10:55:52;;;;;;;7.80;2.65;;;;;;;22.06;53.58;100310.88;5073984;28;20240;-83
2023/07/30 10:58:19;;;;;;;5.10;2.85;;;;;;;22.02;53.80;100306.00;5073498;28;20702;-82
2023/07/30 11:00:46;;;;;;;4.03;3.03;;;;;;;21.99;54.00;100293.63;5073625;28;20204;-82
2023/07/30 11:03:13;;;;;;;9.02;3.20;;;;;;;21.93;54.42;100299.75;5073879;28;20216;-82
2023/07/30 11:05:39;;;;;;;5.60;3.00;;;;;;;21.93;54.74;100299.75;5074557;28;20229;-82
2023/07/30 11:08:06;;;;;;;6.45;2.70;;;;;;;21.95;55.19;100296.88;5073520;28;20197;-81
2023/07/30 11:10:33;;;;;;;5.70;3.05;;;;;;;21.95;55.10;100307.72;5073571;28;20212;-82
2023/07/30 11:12:59;;;;;;;5.85;2.78;;;;;;;21.92;55.30;100294.50;5073810;28;20209;-82
2023/07/30 11:15:26;;;;;;;5.45;3.22;;;;;;;21.89;55.61;100297.56;5073604;28;20233;-83
2023/07/30 11:17:54;;;;;;;5.00;2.92;;;;;;;21.88;55.92;100295.88;5085881;28;20236;-82
2023/07/30 11:20:26;;;;;;;6.28;3.00;;;;;;;21.86;56.08;100287.91;5095089;28;20291;-83
2023/07/30 11:22:53;;;;;;;5.60;3.03;;;;;;;21.85;56.25;100288.13;5097991;28;20243;-83